Adobe Reservoir




Date Battery Voltage (V) Panel Temperature (degF) Reservoir Height (ft) Reservoir Acre Feet (AF) Blue Cut-Clipper-Western Meter (cfs) Hunter Plant Meter (cfs) Air Temperature (degF) Blue Cut-Clipper-Western Meter GPM (gpm) Hunter Plant Meter GPM (gpm) Reservoir Elevation (ft) Battery Voltage 24 (V) Hunter Plant Meter Total Gallons (gal) Pond Battery Voltage (V) Pond 24V Battery Voltage (V) Pipe PSI (PSI) K Gallons Total (gal) Signal Strength (db) Call Fails (ea) Total Fails (ea) Tries (ea) Water Level Sensor Upper Mammoth Meter (gpm) Upper Mammoth Meter (cfs)
09/01/2017 12.3 25.3 94.1 884 30.1 25.4 62 13,494 11,382 5,994.1 29.9 12.2 26.6 23.1 5,317,588.00 0.00 4,114.10 9.17
09/02/2017 12.3 27.4 94.2 887 29.5 27.1 62 13,242 12,173 5,994.2 29.9 12.2 26.6 23.1 5,334,885.00 0.00 3,870.21 8.62
09/03/2017 12.3 28.2 94.2 893 26.6 27.2 62 11,953 12,204 5,994.2 30.0 12.2 26.6 23.4 5,352,253.00 0.00 3,488.61 7.77
09/04/2017 12.3 29.1 94.4 905 32.3 27.2 62 14,494 12,228 5,994.4 30.0 12.2 26.5 23.1 5,369,737.00 0.00 3,368.40 7.51
09/05/2017 12.3 28.9 94.3 894 38.7 27.2 62 17,383 12,223 5,994.3 30.0 12.2 26.5 22.5 5,387,168.00 0.00 3,724.24 8.30
09/06/2017 12.3 27.9 94.1 885 33.0 27.3 62 14,791 12,246 5,994.1 30.2 12.2 26.6 23.0 5,404,755.00 0.00 3,279.31 7.31
09/07/2017 12.3 26.8 94.2 888 34.4 25.3 62 15,441 11,358 5,994.2 30.1 12.2 26.3 23.1 5,421,314.00 0.00 3,189.24 7.11
09/08/2017 12.3 25.3 94.2 889 33.0 25.1 61 14,807 11,279 5,994.2 30.1 12.2 26.6 23.2 5,437,771.00 0.00 3,228.96 7.19
09/09/2017 12.3 24.8 94.4 905 28.7 22.7 61 12,901 10,175 5,994.4 30.1 12.2 26.2 23.9 5,452,608.00 0.00 2,290.21 5.10
09/10/2017 12.3 24.5 94.8 935 26.7 23.1 61 11,967 10,382 5,994.8 30.1 12.2 26.5 24.2 5,467,714.00 0.00 1,481.25 3.30
09/11/2017 12.3 26.8 95.1 957 33.2 26.2 61 14,889 11,758 5,995.1 30.1 12.2 26.5 23.7 5,484,759.00 0.00 2,097.22 4.67
09/12/2017 12.3 26.4 95.2 964 36.8 22.9 61 16,514 10,290 5,995.2 30.3 12.2 26.4 23.5 5,499,705.00 0.00 2,917.29 6.50
09/13/2017 12.3 24.4 95.3 966 38.5 21.1 61 17,287 9,489 5,995.3 30.2 12.2 26.5 23.6 5,513,498.00 0.00 2,146.04 4.78
09/14/2017 12.3 22.4 95.5 982 27.5 20.0 61 12,344 8,982 5,995.5 29.8 12.2 26.0 24.5 5,526,496.00 0.00 1,577.57 3.52
09/15/2017 12.3 19.0 96.1 1,031 16.3 16.2 60 7,302 7,265 5,996.1 29.7 12.2 25.5 25.6 5,536,906.00 0.00 1,133.89 2.53
09/16/2017 12.3 19.3 97.0 1,099 11.3 18.6 58 5,048 8,342 5,997.0 30.1 12.2 26.6 26.1 5,548,799.00 0.00 852.15 1.90
09/17/2017 12.3 20.8 97.8 1,168 14.1 16.6 58 6,307 7,427 5,997.8 30.3 12.2 26.6 26.5 5,559,368.00 0.00 586.94 1.31
09/18/2017 12.3 21.6 97.9 1,177 20.6 18.0 58 9,236 8,089 5,997.9 30.1 12.2 26.8 26.1 5,570,910.00 0.00 1,230.07 2.74
09/19/2017 12.3 23.0 97.6 1,147 22.9 17.4 58 10,287 7,788 5,997.6 30.1 12.2 26.7 25.7 5,582,043.00 0.00 2,157.71 4.81
09/20/2017 12.3 22.4 97.5 1,139 27.8 13.5 58 12,487 6,048 5,997.5 30.0 12.2 26.8 25.7 5,590,683.00 0.00 2,012.64 4.48
09/21/2017 12.3 23.7 97.2 1,115 29.3 13.5 59 13,159 6,038 5,997.2 30.3 12.2 26.6 25.4 5,599,323.00 0.00 2,045.76 4.56
09/22/2017 12.3 22.0 97.0 1,100 22.9 13.4 59 10,292 6,022 5,997.0 30.1 12.2 26.6 25.7 5,607,963.00 0.00 1,771.60 3.95
09/23/2017 12.3 20.1 96.9 1,091 20.4 13.4 58 9,173 6,005 5,996.9 30.0 12.2 26.8 25.8 5,616,603.00 0.00 1,663.47 3.71
09/24/2017 12.3 17.6 97.0 1,098 12.5 13.5 57 5,627 6,071 5,997.0 30.2 12.2 26.6 26.2 5,625,243.00 63.56 1,068.26 2.38
09/25/2017 12.3 17.4 97.2 1,116 13.2 18.2 56 5,923 8,156 5,997.2 30.0 12.2 26.9 26.1 5,636,851.00 0.00 821.67 1.83
09/26/2017 12.3 19.8 97.1 1,106 15.5 23.3 56 6,976 10,451 5,997.1 30.0 12.2 26.9 25.8 5,651,721.00 0.00 1,087.15 2.42
09/27/2017 12.3 20.2 96.8 1,083 13.8 19.9 56 6,174 8,950 5,996.8 30.0 12.2 26.6 25.8 5,664,435.00 0.00 1,098.13 2.45
09/28/2017 12.3 18.7 96.7 1,079 11.6 19.2 56 5,183 8,603 5,996.7 30.1 12.2 26.0 25.9 5,676,648.00 0.00 1,098.68 2.45
09/29/2017 12.3 19.0 96.8 1,086 10.6 19.0 56 4,772 8,514 5,996.8 30.1 12.2 26.6 26.0 5,688,697.00 0.00 1,241.04 2.77
09/30/2017 12.3 19.5 96.8 1,083 14.7 15.4 56 6,603 6,891 5,996.8 30.1 12.2 26.5 25.9 5,698,406.00 0.00 1,625.14 3.62
Average 24.2 20.6 4.63
Maximum 38.7 27.3 9.17
Minimum 10.6 13.4 1.31
Total Volume (AF) 1,440.6 1,223.3 275.16